sensor_id;sensor_type;location;lat;lon;timestamp;P1;durP1;ratioP1;P2;durP2;ratioP2
74074;SDS011;62428;51.412;5.432;2023-06-01T00:01:23;7.47;;;3.50;;
74074;SDS011;62428;51.412;5.432;2023-06-01T00:03:49;9.20;;;3.57;;
74074;SDS011;62428;51.412;5.432;2023-06-01T00:06:15;10.27;;;3.92;;
74074;SDS011;62428;51.412;5.432;2023-06-01T00:08:41;8.27;;;3.83;;
74074;SDS011;62428;51.412;5.432;2023-06-01T00:11:06;10.40;;;4.63;;
74074;SDS011;62428;51.412;5.432;2023-06-01T00:13:31;6.95;;;4.03;;
74074;SDS011;62428;51.412;5.432;2023-06-01T00:15:57;11.77;;;4.40;;
74074;SDS011;62428;51.412;5.432;2023-06-01T00:18:22;11.03;;;4.57;;
74074;SDS011;62428;51.412;5.432;2023-06-01T00:20:48;13.70;;;4.70;;
74074;SDS011;62428;51.412;5.432;2023-06-01T00:23:13;10.73;;;5.00;;
74074;SDS011;62428;51.412;5.432;2023-06-01T00:25:41;9.40;;;4.38;;
74074;SDS011;62428;51.412;5.432;2023-06-01T00:28:07;9.37;;;4.80;;
74074;SDS011;62428;51.412;5.432;2023-06-01T00:30:32;7.53;;;4.70;;
74074;SDS011;62428;51.412;5.432;2023-06-01T00:32:57;8.70;;;4.57;;
74074;SDS011;62428;51.412;5.432;2023-06-01T00:35:23;13.10;;;5.03;;
74074;SDS011;62428;51.412;5.432;2023-06-01T00:37:48;10.90;;;5.10;;
74074;SDS011;62428;51.412;5.432;2023-06-01T00:40:13;10.83;;;5.27;;
74074;SDS011;62428;51.412;5.432;2023-06-01T00:42:39;13.23;;;5.53;;
74074;SDS011;62428;51.412;5.432;2023-06-01T00:45:04;10.63;;;5.30;;
74074;SDS011;62428;51.412;5.432;2023-06-01T00:47:30;8.45;;;4.70;;
74074;SDS011;62428;51.412;5.432;2023-06-01T00:50:08;13.15;;;5.00;;
74074;SDS011;62428;51.412;5.432;2023-06-01T00:52:35;11.05;;;5.30;;
74074;SDS011;62428;51.412;5.432;2023-06-01T00:55:03;9.83;;;5.20;;
74074;SDS011;62428;51.412;5.432;2023-06-01T00:57:29;14.77;;;5.70;;
74074;SDS011;62428;51.412;5.432;2023-06-01T00:59:55;12.48;;;5.50;;
74074;SDS011;62428;51.412;5.432;2023-06-01T01:02:22;10.73;;;5.57;;
74074;SDS011;62428;51.412;5.432;2023-06-01T01:04:48;12.80;;;4.97;;
74074;SDS011;62428;51.412;5.432;2023-06-01T01:07:46;12.25;;;5.80;;
74074;SDS011;62428;51.412;5.432;2023-06-01T01:13:08;12.73;;;5.18;;
74074;SDS011;62428;51.412;5.432;2023-06-01T01:18:36;10.95;;;5.63;;
74074;SDS011;62428;51.412;5.432;2023-06-01T01:21:07;12.18;;;5.30;;
74074;SDS011;62428;51.412;5.432;2023-06-01T01:26:56;12.00;;;5.57;;
74074;SDS011;62428;51.412;5.432;2023-06-01T01:29:24;12.83;;;5.20;;
74074;SDS011;62428;51.412;5.432;2023-06-01T01:31:51;12.93;;;6.03;;
74074;SDS011;62428;51.412;5.432;2023-06-01T01:34:17;11.73;;;6.13;;
74074;SDS011;62428;51.412;5.432;2023-06-01T01:36:45;11.07;;;5.72;;
74074;SDS011;62428;51.412;5.432;2023-06-01T01:39:11;14.35;;;6.00;;
74074;SDS011;62428;51.412;5.432;2023-06-01T01:41:37;12.43;;;5.85;;
74074;SDS011;62428;51.412;5.432;2023-06-01T01:44:02;17.17;;;6.27;;
74074;SDS011;62428;51.412;5.432;2023-06-01T01:46:30;16.15;;;6.68;;
74074;SDS011;62428;51.412;5.432;2023-06-01T01:49:09;13.80;;;6.00;;
74074;SDS011;62428;51.412;5.432;2023-06-01T01:51:43;12.05;;;6.30;;
74074;SDS011;62428;51.412;5.432;2023-06-01T01:54:12;12.73;;;5.70;;
74074;SDS011;62428;51.412;5.432;2023-06-01T01:56:39;10.75;;;5.75;;
74074;SDS011;62428;51.412;5.432;2023-06-01T01:59:05;15.27;;;5.78;;
74074;SDS011;62428;51.412;5.432;2023-06-01T02:01:31;12.90;;;5.32;;
74074;SDS011;62428;51.412;5.432;2023-06-01T02:03:58;12.65;;;5.57;;
74074;SDS011;62428;51.412;5.432;2023-06-01T02:06:24;10.88;;;5.72;;
74074;SDS011;62428;51.412;5.432;2023-06-01T02:08:49;13.82;;;5.97;;
74074;SDS011;62428;51.412;5.432;2023-06-01T02:11:15;12.53;;;5.70;;
74074;SDS011;62428;51.412;5.432;2023-06-01T02:13:40;8.03;;;4.73;;
74074;SDS011;62428;51.412;5.432;2023-06-01T02:16:06;12.63;;;5.63;;
74074;SDS011;62428;51.412;5.432;2023-06-01T02:18:31;16.10;;;6.00;;
74074;SDS011;62428;51.412;5.432;2023-06-01T02:20:57;11.13;;;5.40;;
74074;SDS011;62428;51.412;5.432;2023-06-01T02:23:22;11.80;;;5.60;;
74074;SDS011;62428;51.412;5.432;2023-06-01T02:25:47;11.33;;;5.37;;
74074;SDS011;62428;51.412;5.432;2023-06-01T02:28:13;13.90;;;5.60;;
74074;SDS011;62428;51.412;5.432;2023-06-01T02:30:38;14.00;;;6.50;;
74074;SDS011;62428;51.412;5.432;2023-06-01T02:33:03;14.83;;;6.03;;
74074;SDS011;62428;51.412;5.432;2023-06-01T02:35:29;14.83;;;6.77;;
74074;SDS011;62428;51.412;5.432;2023-06-01T02:37:54;16.77;;;6.32;;
74074;SDS011;62428;51.412;5.432;2023-06-01T02:40:20;14.48;;;7.15;;
74074;SDS011;62428;51.412;5.432;2023-06-01T02:42:45;13.73;;;6.90;;
74074;SDS011;62428;51.412;5.432;2023-06-01T02:45:10;15.63;;;6.90;;
74074;SDS011;62428;51.412;5.432;2023-06-01T02:47:36;19.50;;;7.27;;
74074;SDS011;62428;51.412;5.432;2023-06-01T02:50:01;15.77;;;7.03;;
74074;SDS011;62428;51.412;5.432;2023-06-01T02:52:26;15.38;;;7.07;;
74074;SDS011;62428;51.412;5.432;2023-06-01T02:54:52;17.63;;;7.17;;
74074;SDS011;62428;51.412;5.432;2023-06-01T02:57:17;14.03;;;6.87;;
74074;SDS011;62428;51.412;5.432;2023-06-01T02:59:43;16.37;;;7.67;;
74074;SDS011;62428;51.412;5.432;2023-06-01T03:02:08;16.30;;;7.90;;
74074;SDS011;62428;51.412;5.432;2023-06-01T03:04:33;17.23;;;7.90;;
74074;SDS011;62428;51.412;5.432;2023-06-01T03:06:59;15.33;;;7.47;;
74074;SDS011;62428;51.412;5.432;2023-06-01T03:09:26;20.50;;;8.70;;
74074;SDS011;62428;51.412;5.432;2023-06-01T03:11:51;17.63;;;8.40;;
74074;SDS011;62428;51.412;5.432;2023-06-01T03:14:16;17.27;;;8.60;;
74074;SDS011;62428;51.412;5.432;2023-06-01T03:16:42;17.20;;;8.55;;
74074;SDS011;62428;51.412;5.432;2023-06-01T03:19:08;16.45;;;8.35;;
74074;SDS011;62428;51.412;5.432;2023-06-01T03:21:33;18.30;;;8.67;;
74074;SDS011;62428;51.412;5.432;2023-06-01T03:23:59;19.27;;;8.50;;
74074;SDS011;62428;51.412;5.432;2023-06-01T03:26:24;20.30;;;8.85;;
74074;SDS011;62428;51.412;5.432;2023-06-01T03:28:50;19.30;;;9.30;;
74074;SDS011;62428;51.412;5.432;2023-06-01T03:31:16;19.02;;;8.88;;
74074;SDS011;62428;51.412;5.432;2023-06-01T03:33:41;13.03;;;7.70;;
74074;SDS011;62428;51.412;5.432;2023-06-01T03:36:07;16.13;;;8.17;;
74074;SDS011;62428;51.412;5.432;2023-06-01T03:38:33;15.35;;;7.95;;
74074;SDS011;62428;51.412;5.432;2023-06-01T03:41:01;17.02;;;7.85;;
74074;SDS011;62428;51.412;5.432;2023-06-01T03:43:27;13.93;;;7.60;;
74074;SDS011;62428;51.412;5.432;2023-06-01T03:45:52;19.47;;;8.33;;
74074;SDS011;62428;51.412;5.432;2023-06-01T03:48:17;18.40;;;7.63;;
74074;SDS011;62428;51.412;5.432;2023-06-01T03:50:43;17.97;;;8.20;;
74074;SDS011;62428;51.412;5.432;2023-06-01T03:53:08;14.00;;;7.67;;
74074;SDS011;62428;51.412;5.432;2023-06-01T03:55:33;13.97;;;7.47;;
74074;SDS011;62428;51.412;5.432;2023-06-01T03:57:59;20.65;;;8.40;;
74074;SDS011;62428;51.412;5.432;2023-06-01T04:00:27;16.88;;;7.88;;
74074;SDS011;62428;51.412;5.432;2023-06-01T04:02:59;19.17;;;8.48;;
74074;SDS011;62428;51.412;5.432;2023-06-01T04:05:26;16.20;;;8.05;;
74074;SDS011;62428;51.412;5.432;2023-06-01T04:07:53;17.90;;;7.13;;
74074;SDS011;62428;51.412;5.432;2023-06-01T04:10:20;13.30;;;7.13;;
74074;SDS011;62428;51.412;5.432;2023-06-01T04:12:46;16.02;;;7.32;;
74074;SDS011;62428;51.412;5.432;2023-06-01T04:15:14;14.48;;;7.45;;
74074;SDS011;62428;51.412;5.432;2023-06-01T04:17:40;15.00;;;6.75;;
74074;SDS011;62428;51.412;5.432;2023-06-01T04:20:09;15.02;;;6.72;;
74074;SDS011;62428;51.412;5.432;2023-06-01T04:22:37;15.80;;;6.70;;
74074;SDS011;62428;51.412;5.432;2023-06-01T04:25:05;11.32;;;6.28;;
74074;SDS011;62428;51.412;5.432;2023-06-01T04:27:34;15.15;;;6.82;;
74074;SDS011;62428;51.412;5.432;2023-06-01T04:30:03;12.93;;;6.47;;
74074;SDS011;62428;51.412;5.432;2023-06-01T04:32:35;12.68;;;6.43;;
74074;SDS011;62428;51.412;5.432;2023-06-01T04:35:02;12.85;;;5.68;;
74074;SDS011;62428;51.412;5.432;2023-06-01T04:37:35;11.50;;;6.13;;
74074;SDS011;62428;51.412;5.432;2023-06-01T04:40:03;14.52;;;6.70;;
74074;SDS011;62428;51.412;5.432;2023-06-01T04:42:33;11.02;;;5.70;;
74074;SDS011;62428;51.412;5.432;2023-06-01T04:44:59;13.23;;;5.80;;
74074;SDS011;62428;51.412;5.432;2023-06-01T04:47:25;10.85;;;5.68;;
74074;SDS011;62428;51.412;5.432;2023-06-01T04:49:50;11.97;;;5.33;;
74074;SDS011;62428;51.412;5.432;2023-06-01T04:52:15;11.87;;;5.90;;
74074;SDS011;62428;51.412;5.432;2023-06-01T04:54:41;12.40;;;6.07;;
74074;SDS011;62428;51.412;5.432;2023-06-01T04:57:06;14.95;;;6.25;;
74074;SDS011;62428;51.412;5.432;2023-06-01T04:59:32;14.80;;;5.57;;
74074;SDS011;62428;51.412;5.432;2023-06-01T05:01:58;15.88;;;5.82;;
74074;SDS011;62428;51.412;5.432;2023-06-01T05:04:24;15.30;;;5.82;;
74074;SDS011;62428;51.412;5.432;2023-06-01T05:06:49;13.43;;;6.37;;
74074;SDS011;62428;51.412;5.432;2023-06-01T05:09:15;13.68;;;5.85;;
74074;SDS011;62428;51.412;5.432;2023-06-01T05:11:41;10.70;;;6.40;;
74074;SDS011;62428;51.412;5.432;2023-06-01T05:14:06;13.53;;;5.90;;
74074;SDS011;62428;51.412;5.432;2023-06-01T05:16:32;11.02;;;6.22;;
74074;SDS011;62428;51.412;5.432;2023-06-01T05:18:58;11.57;;;5.93;;
74074;SDS011;62428;51.412;5.432;2023-06-01T05:21:23;11.00;;;6.32;;
74074;SDS011;62428;51.412;5.432;2023-06-01T05:23:48;10.93;;;5.93;;
74074;SDS011;62428;51.412;5.432;2023-06-01T05:26:14;14.50;;;6.47;;
74074;SDS011;62428;51.412;5.432;2023-06-01T05:28:39;10.63;;;5.70;;
74074;SDS011;62428;51.412;5.432;2023-06-01T05:31:05;11.63;;;6.60;;
74074;SDS011;62428;51.412;5.432;2023-06-01T05:33:30;14.43;;;6.37;;
74074;SDS011;62428;51.412;5.432;2023-06-01T05:35:56;15.65;;;5.85;;
74074;SDS011;62428;51.412;5.432;2023-06-01T05:38:21;11.67;;;6.27;;
74074;SDS011;62428;51.412;5.432;2023-06-01T05:40:47;12.50;;;6.20;;
74074;SDS011;62428;51.412;5.432;2023-06-01T05:43:12;13.23;;;6.20;;
74074;SDS011;62428;51.412;5.432;2023-06-01T05:45:37;13.67;;;7.30;;
74074;SDS011;62428;51.412;5.432;2023-06-01T05:48:03;13.65;;;6.50;;
74074;SDS011;62428;51.412;5.432;2023-06-01T05:50:28;16.23;;;6.45;;
74074;SDS011;62428;51.412;5.432;2023-06-01T05:52:53;16.13;;;6.87;;
74074;SDS011;62428;51.412;5.432;2023-06-01T05:55:19;13.77;;;6.17;;
74074;SDS011;62428;51.412;5.432;2023-06-01T05:57:45;14.80;;;6.82;;
74074;SDS011;62428;51.412;5.432;2023-06-01T06:00:13;14.35;;;6.72;;
74074;SDS011;62428;51.412;5.432;2023-06-01T06:02:40;14.75;;;6.72;;
74074;SDS011;62428;51.412;5.432;2023-06-01T06:05:07;11.90;;;6.80;;
74074;SDS011;62428;51.412;5.432;2023-06-01T06:07:33;12.52;;;6.85;;
74074;SDS011;62428;51.412;5.432;2023-06-01T06:09:58;17.07;;;6.97;;
74074;SDS011;62428;51.412;5.432;2023-06-01T06:12:23;13.07;;;6.63;;
74074;SDS011;62428;51.412;5.432;2023-06-01T06:14:49;14.13;;;6.67;;
74074;SDS011;62428;51.412;5.432;2023-06-01T06:17:14;14.13;;;6.57;;
74074;SDS011;62428;51.412;5.432;2023-06-01T06:19:40;14.13;;;6.88;;
74074;SDS011;62428;51.412;5.432;2023-06-01T06:22:08;15.00;;;6.40;;
74074;SDS011;62428;51.412;5.432;2023-06-01T06:24:34;11.23;;;6.20;;
74074;SDS011;62428;51.412;5.432;2023-06-01T06:26:59;12.73;;;6.07;;
74074;SDS011;62428;51.412;5.432;2023-06-01T06:29:25;19.00;;;6.85;;
74074;SDS011;62428;51.412;5.432;2023-06-01T06:31:50;12.23;;;6.13;;
74074;SDS011;62428;51.412;5.432;2023-06-01T06:34:15;13.57;;;6.47;;
74074;SDS011;62428;51.412;5.432;2023-06-01T06:36:41;16.03;;;6.20;;
74074;SDS011;62428;51.412;5.432;2023-06-01T06:39:06;14.32;;;6.35;;
74074;SDS011;62428;51.412;5.432;2023-06-01T06:41:32;13.67;;;5.93;;
74074;SDS011;62428;51.412;5.432;2023-06-01T06:43:57;13.33;;;6.17;;
74074;SDS011;62428;51.412;5.432;2023-06-01T06:46:23;15.43;;;6.83;;
74074;SDS011;62428;51.412;5.432;2023-06-01T06:48:48;13.73;;;6.72;;
74074;SDS011;62428;51.412;5.432;2023-06-01T06:51:13;11.60;;;6.23;;
74074;SDS011;62428;51.412;5.432;2023-06-01T06:53:39;15.37;;;6.53;;
74074;SDS011;62428;51.412;5.432;2023-06-01T06:56:04;16.60;;;6.50;;
74074;SDS011;62428;51.412;5.432;2023-06-01T06:58:30;13.53;;;6.63;;
74074;SDS011;62428;51.412;5.432;2023-06-01T07:00:55;15.03;;;5.97;;
74074;SDS011;62428;51.412;5.432;2023-06-01T07:03:20;12.25;;;6.55;;
74074;SDS011;62428;51.412;5.432;2023-06-01T07:05:46;13.67;;;6.87;;
74074;SDS011;62428;51.412;5.432;2023-06-01T07:08:12;13.10;;;6.22;;
74074;SDS011;62428;51.412;5.432;2023-06-01T07:10:38;15.07;;;6.50;;
74074;SDS011;62428;51.412;5.432;2023-06-01T07:13:03;15.50;;;6.27;;
74074;SDS011;62428;51.412;5.432;2023-06-01T07:15:28;16.33;;;6.40;;
74074;SDS011;62428;51.412;5.432;2023-06-01T07:17:54;21.37;;;7.10;;
74074;SDS011;62428;51.412;5.432;2023-06-01T07:20:19;13.97;;;5.67;;
74074;SDS011;62428;51.412;5.432;2023-06-01T07:22:44;21.63;;;6.80;;
74074;SDS011;62428;51.412;5.432;2023-06-01T07:25:10;13.00;;;6.23;;
74074;SDS011;62428;51.412;5.432;2023-06-01T07:27:38;12.77;;;5.88;;
74074;SDS011;62428;51.412;5.432;2023-06-01T07:30:08;20.35;;;6.75;;
74074;SDS011;62428;51.412;5.432;2023-06-01T07:32:34;20.07;;;6.37;;
74074;SDS011;62428;51.412;5.432;2023-06-01T07:35:00;14.82;;;5.82;;
74074;SDS011;62428;51.412;5.432;2023-06-01T07:37:26;13.35;;;5.70;;
74074;SDS011;62428;51.412;5.432;2023-06-01T07:39:52;11.20;;;5.90;;
74074;SDS011;62428;51.412;5.432;2023-06-01T07:42:18;11.52;;;5.90;;
74074;SDS011;62428;51.412;5.432;2023-06-01T07:44:45;14.27;;;7.10;;
74074;SDS011;62428;51.412;5.432;2023-06-01T07:47:11;18.07;;;7.33;;
74074;SDS011;62428;51.412;5.432;2023-06-01T07:49:36;10.87;;;5.67;;
74074;SDS011;62428;51.412;5.432;2023-06-01T07:52:02;12.67;;;5.57;;
74074;SDS011;62428;51.412;5.432;2023-06-01T07:54:28;9.70;;;5.97;;
74074;SDS011;62428;51.412;5.432;2023-06-01T07:56:54;24.20;;;7.30;;
74074;SDS011;62428;51.412;5.432;2023-06-01T07:59:19;14.10;;;6.17;;
74074;SDS011;62428;51.412;5.432;2023-06-01T08:01:49;13.38;;;5.93;;
74074;SDS011;62428;51.412;5.432;2023-06-01T08:04:15;8.60;;;5.53;;
74074;SDS011;62428;51.412;5.432;2023-06-01T08:06:41;12.07;;;5.57;;
74074;SDS011;62428;51.412;5.432;2023-06-01T08:09:07;13.77;;;6.00;;
74074;SDS011;62428;51.412;5.432;2023-06-01T08:11:32;16.10;;;6.13;;
74074;SDS011;62428;51.412;5.432;2023-06-01T08:13:58;11.93;;;5.43;;
74074;SDS011;62428;51.412;5.432;2023-06-01T08:16:28;13.35;;;6.20;;
74074;SDS011;62428;51.412;5.432;2023-06-01T08:18:54;12.57;;;6.47;;
74074;SDS011;62428;51.412;5.432;2023-06-01T08:21:21;11.80;;;5.73;;
74074;SDS011;62428;51.412;5.432;2023-06-01T08:23:47;19.65;;;6.22;;
74074;SDS011;62428;51.412;5.432;2023-06-01T08:26:13;11.17;;;6.30;;
74074;SDS011;62428;51.412;5.432;2023-06-01T08:28:38;15.70;;;6.22;;
74074;SDS011;62428;51.412;5.432;2023-06-01T08:31:03;14.70;;;6.10;;
74074;SDS011;62428;51.412;5.432;2023-06-01T08:33:29;12.33;;;5.63;;
74074;SDS011;62428;51.412;5.432;2023-06-01T08:35:54;18.93;;;6.80;;
74074;SDS011;62428;51.412;5.432;2023-06-01T08:38:20;12.60;;;5.40;;
74074;SDS011;62428;51.412;5.432;2023-06-01T08:40:46;11.07;;;6.13;;
74074;SDS011;62428;51.412;5.432;2023-06-01T08:45:40;11.90;;;6.00;;
74074;SDS011;62428;51.412;5.432;2023-06-01T08:48:05;16.05;;;6.28;;
74074;SDS011;62428;51.412;5.432;2023-06-01T08:50:33;18.23;;;5.87;;
74074;SDS011;62428;51.412;5.432;2023-06-01T08:52:59;17.17;;;6.68;;
74074;SDS011;62428;51.412;5.432;2023-06-01T08:55:27;13.98;;;6.93;;
74074;SDS011;62428;51.412;5.432;2023-06-01T08:57:53;15.27;;;6.27;;
74074;SDS011;62428;51.412;5.432;2023-06-01T09:00:19;19.02;;;6.32;;
74074;SDS011;62428;51.412;5.432;2023-06-01T09:02:46;13.15;;;6.43;;
74074;SDS011;62428;51.412;5.432;2023-06-01T09:05:13;13.25;;;7.15;;
74074;SDS011;62428;51.412;5.432;2023-06-01T09:07:39;12.97;;;6.57;;
74074;SDS011;62428;51.412;5.432;2023-06-01T09:10:05;14.52;;;6.45;;
74074;SDS011;62428;51.412;5.432;2023-06-01T09:12:31;15.93;;;6.80;;
74074;SDS011;62428;51.412;5.432;2023-06-01T09:15:08;15.15;;;6.65;;
74074;SDS011;62428;51.412;5.432;2023-06-01T09:17:36;15.47;;;6.60;;
74074;SDS011;62428;51.412;5.432;2023-06-01T09:20:02;26.25;;;7.88;;
74074;SDS011;62428;51.412;5.432;2023-06-01T09:22:46;18.17;;;6.93;;
74074;SDS011;62428;51.412;5.432;2023-06-01T09:25:12;13.32;;;6.50;;
74074;SDS011;62428;51.412;5.432;2023-06-01T09:27:45;14.57;;;6.80;;
74074;SDS011;62428;51.412;5.432;2023-06-01T09:30:13;13.40;;;6.50;;
74074;SDS011;62428;51.412;5.432;2023-06-01T09:32:39;15.00;;;6.88;;
74074;SDS011;62428;51.412;5.432;2023-06-01T09:35:06;13.68;;;6.60;;
74074;SDS011;62428;51.412;5.432;2023-06-01T09:37:33;19.70;;;7.30;;
74074;SDS011;62428;51.412;5.432;2023-06-01T09:40:02;16.35;;;6.65;;
74074;SDS011;62428;51.412;5.432;2023-06-01T09:42:40;22.87;;;7.57;;
74074;SDS011;62428;51.412;5.432;2023-06-01T09:45:15;17.23;;;6.78;;
74074;SDS011;62428;51.412;5.432;2023-06-01T09:47:43;15.13;;;6.70;;
74074;SDS011;62428;51.412;5.432;2023-06-01T09:50:09;15.73;;;7.20;;
74074;SDS011;62428;51.412;5.432;2023-06-01T09:52:36;19.03;;;7.80;;
74074;SDS011;62428;51.412;5.432;2023-06-01T09:55:04;14.17;;;6.60;;
74074;SDS011;62428;51.412;5.432;2023-06-01T09:57:33;15.60;;;7.40;;
74074;SDS011;62428;51.412;5.432;2023-06-01T09:59:58;17.05;;;7.32;;
74074;SDS011;62428;51.412;5.432;2023-06-01T10:02:27;10.65;;;6.30;;
74074;SDS011;62428;51.412;5.432;2023-06-01T10:04:56;15.33;;;7.10;;
74074;SDS011;62428;51.412;5.432;2023-06-01T10:07:28;16.85;;;7.18;;
74074;SDS011;62428;51.412;5.432;2023-06-01T10:09:56;28.20;;;7.43;;
74074;SDS011;62428;51.412;5.432;2023-06-01T10:12:24;21.98;;;6.65;;
74074;SDS011;62428;51.412;5.432;2023-06-01T10:14:50;18.20;;;6.85;;
74074;SDS011;62428;51.412;5.432;2023-06-01T10:17:17;16.50;;;7.67;;
74074;SDS011;62428;51.412;5.432;2023-06-01T10:19:44;19.90;;;8.07;;
74074;SDS011;62428;51.412;5.432;2023-06-01T10:22:10;21.25;;;7.95;;
74074;SDS011;62428;51.412;5.432;2023-06-01T10:24:36;18.65;;;7.13;;
74074;SDS011;62428;51.412;5.432;2023-06-01T10:27:33;12.23;;;6.32;;
74074;SDS011;62428;51.412;5.432;2023-06-01T10:30:06;16.20;;;7.00;;
74074;SDS011;62428;51.412;5.432;2023-06-01T10:32:48;19.38;;;8.13;;
74074;SDS011;62428;51.412;5.432;2023-06-01T10:40:34;14.68;;;7.25;;
74074;SDS011;62428;51.412;5.432;2023-06-01T10:43:00;14.03;;;7.17;;
74074;SDS011;62428;51.412;5.432;2023-06-01T10:45:35;17.90;;;8.20;;
74074;SDS011;62428;51.412;5.432;2023-06-01T10:48:13;18.80;;;7.90;;
74074;SDS011;62428;51.412;5.432;2023-06-01T10:50:40;14.23;;;7.30;;
74074;SDS011;62428;51.412;5.432;2023-06-01T10:53:26;20.85;;;7.82;;
74074;SDS011;62428;51.412;5.432;2023-06-01T10:59:32;15.75;;;7.68;;
74074;SDS011;62428;51.412;5.432;2023-06-01T11:01:36;10.90;;;6.43;;
74074;SDS011;62428;51.412;5.432;2023-06-01T11:04:02;14.80;;;7.47;;
74074;SDS011;62428;51.412;5.432;2023-06-01T11:06:29;12.90;;;6.57;;
74074;SDS011;62428;51.412;5.432;2023-06-01T11:09:00;13.07;;;6.70;;
74074;SDS011;62428;51.412;5.432;2023-06-01T11:14:15;16.33;;;7.60;;
74074;SDS011;62428;51.412;5.432;2023-06-01T11:16:41;15.35;;;7.05;;
74074;SDS011;62428;51.412;5.432;2023-06-01T11:19:07;14.27;;;7.23;;
74074;SDS011;62428;51.412;5.432;2023-06-01T11:21:40;17.73;;;7.22;;
74074;SDS011;62428;51.412;5.432;2023-06-01T11:24:14;17.10;;;7.68;;
74074;SDS011;62428;51.412;5.432;2023-06-01T11:26:44;14.17;;;6.47;;
74074;SDS011;62428;51.412;5.432;2023-06-01T11:31:48;13.90;;;6.78;;
74074;SDS011;62428;51.412;5.432;2023-06-01T11:34:17;19.25;;;6.95;;
74074;SDS011;62428;51.412;5.432;2023-06-01T11:36:45;17.80;;;6.50;;
74074;SDS011;62428;51.412;5.432;2023-06-01T11:39:19;14.27;;;7.03;;
74074;SDS011;62428;51.412;5.432;2023-06-01T11:41:46;13.80;;;6.47;;
74074;SDS011;62428;51.412;5.432;2023-06-01T11:44:12;15.15;;;6.93;;
74074;SDS011;62428;51.412;5.432;2023-06-01T11:46:48;22.08;;;7.45;;
74074;SDS011;62428;51.412;5.432;2023-06-01T11:49:15;27.17;;;7.80;;
74074;SDS011;62428;51.412;5.432;2023-06-01T11:51:41;14.88;;;8.00;;
74074;SDS011;62428;51.412;5.432;2023-06-01T11:54:07;19.83;;;7.43;;
74074;SDS011;62428;51.412;5.432;2023-06-01T11:56:34;16.17;;;7.18;;
74074;SDS011;62428;51.412;5.432;2023-06-01T11:59:01;15.65;;;6.78;;
74074;SDS011;62428;51.412;5.432;2023-06-01T12:01:33;18.70;;;8.43;;
74074;SDS011;62428;51.412;5.432;2023-06-01T12:04:00;21.63;;;8.50;;
74074;SDS011;62428;51.412;5.432;2023-06-01T12:06:27;18.67;;;7.33;;
74074;SDS011;62428;51.412;5.432;2023-06-01T12:08:53;21.50;;;9.18;;
74074;SDS011;62428;51.412;5.432;2023-06-01T12:11:26;28.40;;;7.20;;
74074;SDS011;62428;51.412;5.432;2023-06-01T12:13:53;13.98;;;7.15;;
74074;SDS011;62428;51.412;5.432;2023-06-01T12:16:20;13.73;;;6.40;;
74074;SDS011;62428;51.412;5.432;2023-06-01T12:18:46;15.95;;;7.05;;
74074;SDS011;62428;51.412;5.432;2023-06-01T12:21:11;20.27;;;7.35;;
74074;SDS011;62428;51.412;5.432;2023-06-01T12:23:37;17.07;;;6.30;;
74074;SDS011;62428;51.412;5.432;2023-06-01T12:26:03;17.85;;;7.40;;
74074;SDS011;62428;51.412;5.432;2023-06-01T12:28:28;21.37;;;8.07;;
74074;SDS011;62428;51.412;5.432;2023-06-01T12:31:12;20.08;;;6.78;;
74074;SDS011;62428;51.412;5.432;2023-06-01T12:33:40;16.00;;;6.30;;
74074;SDS011;62428;51.412;5.432;2023-06-01T12:36:07;15.43;;;7.00;;
74074;SDS011;62428;51.412;5.432;2023-06-01T12:38:34;13.43;;;5.93;;
74074;SDS011;62428;51.412;5.432;2023-06-01T12:41:10;15.98;;;6.57;;
74074;SDS011;62428;51.412;5.432;2023-06-01T12:43:37;13.18;;;6.85;;
74074;SDS011;62428;51.412;5.432;2023-06-01T12:46:04;16.85;;;6.80;;
74074;SDS011;62428;51.412;5.432;2023-06-01T12:48:31;16.07;;;6.00;;
74074;SDS011;62428;51.412;5.432;2023-06-01T12:51:00;15.38;;;5.93;;
74074;SDS011;62428;51.412;5.432;2023-06-01T12:53:26;11.68;;;5.85;;
74074;SDS011;62428;51.412;5.432;2023-06-01T12:55:52;13.20;;;6.32;;
74074;SDS011;62428;51.412;5.432;2023-06-01T12:58:18;12.63;;;6.73;;
74074;SDS011;62428;51.412;5.432;2023-06-01T13:00:43;15.97;;;6.40;;
74074;SDS011;62428;51.412;5.432;2023-06-01T13:03:08;11.83;;;5.90;;
74074;SDS011;62428;51.412;5.432;2023-06-01T13:05:34;14.23;;;5.47;;
74074;SDS011;62428;51.412;5.432;2023-06-01T13:07:59;12.40;;;5.03;;
74074;SDS011;62428;51.412;5.432;2023-06-01T13:10:25;15.33;;;5.80;;
74074;SDS011;62428;51.412;5.432;2023-06-01T13:12:51;11.68;;;5.75;;
74074;SDS011;62428;51.412;5.432;2023-06-01T13:15:16;11.27;;;4.87;;
74074;SDS011;62428;51.412;5.432;2023-06-01T13:17:43;9.90;;;5.03;;
74074;SDS011;62428;51.412;5.432;2023-06-01T13:20:08;9.93;;;5.27;;
74074;SDS011;62428;51.412;5.432;2023-06-01T13:22:36;9.90;;;5.20;;
74074;SDS011;62428;51.412;5.432;2023-06-01T13:25:02;15.95;;;5.80;;
74074;SDS011;62428;51.412;5.432;2023-06-01T13:27:29;14.97;;;5.37;;
74074;SDS011;62428;51.412;5.432;2023-06-01T13:29:55;10.85;;;4.53;;
74074;SDS011;62428;51.412;5.432;2023-06-01T13:32:21;11.43;;;4.70;;
74074;SDS011;62428;51.412;5.432;2023-06-01T13:34:46;13.03;;;5.90;;
74074;SDS011;62428;51.412;5.432;2023-06-01T13:37:12;15.27;;;5.25;;
74074;SDS011;62428;51.412;5.432;2023-06-01T13:39:37;11.20;;;5.30;;
74074;SDS011;62428;51.412;5.432;2023-06-01T13:42:03;10.73;;;5.50;;
74074;SDS011;62428;51.412;5.432;2023-06-01T13:44:30;14.18;;;5.05;;
74074;SDS011;62428;51.412;5.432;2023-06-01T13:46:55;11.03;;;6.07;;
74074;SDS011;62428;51.412;5.432;2023-06-01T13:49:22;13.65;;;5.43;;
74074;SDS011;62428;51.412;5.432;2023-06-01T13:51:48;13.82;;;5.60;;
74074;SDS011;62428;51.412;5.432;2023-06-01T13:54:14;12.60;;;5.87;;
74074;SDS011;62428;51.412;5.432;2023-06-01T13:56:39;13.57;;;5.20;;
74074;SDS011;62428;51.412;5.432;2023-06-01T13:59:05;11.67;;;5.07;;
74074;SDS011;62428;51.412;5.432;2023-06-01T14:01:30;13.32;;;5.43;;
74074;SDS011;62428;51.412;5.432;2023-06-01T14:03:56;12.30;;;4.47;;
74074;SDS011;62428;51.412;5.432;2023-06-01T14:06:21;11.83;;;4.67;;
74074;SDS011;62428;51.412;5.432;2023-06-01T14:08:46;11.17;;;5.00;;
74074;SDS011;62428;51.412;5.432;2023-06-01T14:11:13;13.88;;;5.35;;
74074;SDS011;62428;51.412;5.432;2023-06-01T14:13:39;14.57;;;5.60;;
74074;SDS011;62428;51.412;5.432;2023-06-01T14:16:04;10.33;;;4.87;;
74074;SDS011;62428;51.412;5.432;2023-06-01T14:18:30;12.38;;;4.47;;
74074;SDS011;62428;51.412;5.432;2023-06-01T14:20:55;8.40;;;4.00;;
74074;SDS011;62428;51.412;5.432;2023-06-01T14:23:21;18.17;;;5.10;;
74074;SDS011;62428;51.412;5.432;2023-06-01T14:25:46;11.20;;;4.13;;
74074;SDS011;62428;51.412;5.432;2023-06-01T14:28:11;9.00;;;4.33;;
74074;SDS011;62428;51.412;5.432;2023-06-01T14:30:37;9.23;;;4.07;;
74074;SDS011;62428;51.412;5.432;2023-06-01T14:33:02;10.32;;;3.85;;
74074;SDS011;62428;51.412;5.432;2023-06-01T14:35:27;10.33;;;3.63;;
74074;SDS011;62428;51.412;5.432;2023-06-01T14:37:53;11.37;;;4.33;;
74074;SDS011;62428;51.412;5.432;2023-06-01T14:40:18;13.20;;;4.37;;
74074;SDS011;62428;51.412;5.432;2023-06-01T14:42:44;6.67;;;3.43;;
74074;SDS011;62428;51.412;5.432;2023-06-01T14:45:10;5.82;;;3.00;;
74074;SDS011;62428;51.412;5.432;2023-06-01T14:47:38;8.52;;;3.10;;
74074;SDS011;62428;51.412;5.432;2023-06-01T14:50:06;6.82;;;3.30;;
74074;SDS011;62428;51.412;5.432;2023-06-01T14:52:32;9.52;;;3.08;;
74074;SDS011;62428;51.412;5.432;2023-06-01T14:54:57;8.17;;;2.67;;
74074;SDS011;62428;51.412;5.432;2023-06-01T14:57:23;11.87;;;3.30;;
74074;SDS011;62428;51.412;5.432;2023-06-01T14:59:49;7.10;;;3.10;;